createdAt,value
2023-03-11T00:01:20.166Z,99338.38
2023-03-11T00:03:47.655Z,99328.56
2023-03-11T00:06:15.130Z,99337.25
2023-03-11T00:08:42.738Z,99321.78
2023-03-11T00:11:10.165Z,99325.31
2023-03-11T00:13:38.002Z,99324.69
2023-03-11T00:16:05.946Z,99333.47
2023-03-11T00:18:33.616Z,99325.38
2023-03-11T00:21:01.379Z,99324.50
2023-03-11T00:23:29.366Z,99322.88
2023-03-11T00:25:57.043Z,99314.31
2023-03-11T00:28:26.783Z,99316.00
2023-03-11T00:30:55.260Z,99314.13
2023-03-11T00:33:23.413Z,99321.16
2023-03-11T00:35:51.395Z,99323.03
2023-03-11T00:38:20.690Z,99310.97
2023-03-11T00:40:48.704Z,99316.41
2023-03-11T00:43:16.919Z,99315.53
2023-03-11T00:45:44.892Z,99309.13
2023-03-11T00:48:13.919Z,99314.06
2023-03-11T00:50:42.430Z,99319.47
2023-03-11T00:53:10.572Z,99321.38
2023-03-11T00:55:38.232Z,99325.66
2023-03-11T00:58:08.952Z,99316.09
2023-03-11T01:00:41.689Z,99325.81
2023-03-11T01:03:09.871Z,99321.03
2023-03-11T01:05:37.453Z,99325.84
2023-03-11T01:08:05.631Z,99331.97
2023-03-11T01:10:34.562Z,99333.50
2023-03-11T01:13:02.944Z,99321.56
2023-03-11T01:15:34.112Z,99332.00
2023-03-11T01:18:02.264Z,99327.88
2023-03-11T01:20:34.144Z,99328.25
2023-03-11T01:23:01.750Z,99322.59
2023-03-11T01:25:29.863Z,99325.75
2023-03-11T01:27:59.548Z,99326.75
2023-03-11T01:30:30.366Z,99321.72
2023-03-11T01:32:58.611Z,99323.34
2023-03-11T01:35:30.849Z,99317.19
2023-03-11T01:37:59.335Z,99323.59
2023-03-11T01:40:40.379Z,99319.69
2023-03-11T01:43:44.744Z,99314.06
2023-03-11T01:46:54.187Z,99323.59
2023-03-11T01:49:26.061Z,99316.44
2023-03-11T01:52:08.038Z,99324.88
2023-03-11T01:54:42.485Z,99315.53
2023-03-11T01:57:13.583Z,99314.53
2023-03-11T01:59:47.724Z,99313.41
2023-03-11T02:02:21.773Z,99317.69
2023-03-11T02:04:50.944Z,99304.47
2023-03-11T02:07:18.870Z,99324.59
2023-03-11T02:09:48.761Z,99318.06
2023-03-11T02:12:16.857Z,99316.19
2023-03-11T02:14:49.111Z,99316.31
2023-03-11T02:17:17.069Z,99321.09
2023-03-11T02:20:05.946Z,99324.34
2023-03-11T02:22:34.752Z,99319.84
2023-03-11T02:25:30.520Z,99319.31
2023-03-11T02:27:59.977Z,99316.19
2023-03-11T02:30:29.567Z,99311.56
2023-03-11T02:32:57.531Z,99320.34
2023-03-11T02:35:25.891Z,99316.47
2023-03-11T02:37:55.659Z,99296.72
2023-03-11T02:40:23.780Z,99308.66
2023-03-11T02:42:58.195Z,99317.72
2023-03-11T02:45:27.444Z,99321.72
2023-03-11T02:47:58.283Z,99317.81
2023-03-11T02:50:28.548Z,99322.97
2023-03-11T02:52:56.892Z,99325.50
2023-03-11T02:55:24.576Z,99323.06
2023-03-11T02:57:52.058Z,99315.53
2023-03-11T03:00:23.130Z,99318.81
2023-03-11T03:02:57.032Z,99321.19
2023-03-11T03:05:27.004Z,99311.53
2023-03-11T03:07:54.817Z,99323.81
2023-03-11T03:10:23.983Z,99313.03
2023-03-11T03:12:51.672Z,99331.59
2023-03-11T03:15:19.224Z,99323.06
2023-03-11T03:17:47.084Z,99328.03
2023-03-11T03:20:15.091Z,99318.97
2023-03-11T03:22:48.741Z,99332.34
2023-03-11T03:25:18.649Z,99322.25
2023-03-11T03:27:46.848Z,99324.88
2023-03-11T03:30:15.304Z,99316.88
2023-03-11T03:32:43.807Z,99328.56
2023-03-11T03:35:14.351Z,99322.06
2023-03-11T03:38:01.717Z,99326.69
2023-03-11T03:40:29.658Z,99319.78
2023-03-11T03:42:59.573Z,99306.84
2023-03-11T03:45:28.546Z,99313.72
2023-03-11T03:47:56.029Z,99312.97
2023-03-11T03:50:25.585Z,99313.25
2023-03-11T03:52:55.117Z,99317.50
2023-03-11T03:55:24.000Z,99311.19
2023-03-11T03:57:52.398Z,99317.22
2023-03-11T04:00:22.274Z,99312.19
2023-03-11T04:02:57.043Z,99299.13
2023-03-11T04:05:41.649Z,99303.88
2023-03-11T04:08:09.404Z,99309.03
2023-03-11T04:10:36.864Z,99311.97
2023-03-11T04:13:05.064Z,99295.28
2023-03-11T04:15:33.200Z,99305.31
2023-03-11T04:18:00.819Z,99302.91
2023-03-11T04:20:28.394Z,99306.19
2023-03-11T04:22:56.021Z,99287.84
2023-03-11T04:25:25.124Z,99291.91
2023-03-11T04:27:52.845Z,99281.41
2023-03-11T04:30:21.866Z,99281.66
2023-03-11T04:32:54.756Z,99283.94
2023-03-11T04:35:22.518Z,99271.16
2023-03-11T04:37:50.294Z,99260.94
2023-03-11T04:40:18.219Z,99268.34
2023-03-11T04:42:45.958Z,99271.03
2023-03-11T04:45:14.284Z,99264.41
2023-03-11T04:47:44.075Z,99256.78
2023-03-11T04:50:11.834Z,99263.47
2023-03-11T04:52:39.654Z,99266.47
2023-03-11T04:55:08.446Z,99280.03
2023-03-11T04:57:36.091Z,99262.97
2023-03-11T05:00:11.971Z,99264.84
2023-03-11T05:02:43.331Z,99269.75
2023-03-11T05:05:12.146Z,99252.66
2023-03-11T05:07:41.789Z,99264.09
2023-03-11T05:10:10.820Z,99264.44
2023-03-11T05:12:40.581Z,99251.78
2023-03-11T05:15:08.720Z,99246.78
2023-03-11T05:17:37.459Z,99243.31
2023-03-11T05:20:07.609Z,99264.34
2023-03-11T05:22:36.164Z,99260.47
2023-03-11T05:25:05.133Z,99244.25
2023-03-11T05:27:33.133Z,99250.69
2023-03-11T05:30:00.669Z,99259.72
2023-03-11T05:32:31.618Z,99248.16
2023-03-11T05:34:59.305Z,99241.03
2023-03-11T05:37:27.498Z,99248.34
2023-03-11T05:39:56.622Z,99250.09
2023-03-11T05:42:24.331Z,99260.13
2023-03-11T05:44:54.638Z,99265.75
2023-03-11T05:47:24.142Z,99252.06
2023-03-11T05:49:51.697Z,99239.88
2023-03-11T05:52:20.735Z,99255.59
2023-03-11T05:54:52.626Z,99248.97
2023-03-11T05:57:24.492Z,99255.13
2023-03-11T05:59:52.004Z,99237.38
2023-03-11T06:02:21.246Z,99232.88
2023-03-11T06:04:49.671Z,99245.94
2023-03-11T06:07:17.600Z,99242.44
2023-03-11T06:09:50.668Z,99243.09
2023-03-11T06:12:19.571Z,99243.84
2023-03-11T06:14:59.506Z,99246.34
2023-03-11T06:17:30.712Z,99241.22
2023-03-11T06:19:58.706Z,99242.97
2023-03-11T06:22:26.489Z,99253.88
2023-03-11T06:24:53.987Z,99247.09
2023-03-11T06:27:22.343Z,99241.44
2023-03-11T06:29:54.609Z,99246.94
2023-03-11T06:32:24.541Z,99242.16
2023-03-11T06:34:53.085Z,99227.63
2023-03-11T06:37:23.750Z,99241.16
2023-03-11T06:39:54.673Z,99238.53
2023-03-11T06:42:24.521Z,99228.84
2023-03-11T06:44:54.456Z,99225.19
2023-03-11T06:47:22.356Z,99232.81
2023-03-11T06:49:51.569Z,99243.88
2023-03-11T06:52:19.640Z,99240.84
2023-03-11T06:54:47.273Z,99234.53
2023-03-11T06:57:17.235Z,99233.91
2023-03-11T06:59:47.435Z,99231.50
2023-03-11T07:02:17.490Z,99224.50
2023-03-11T07:04:45.238Z,99224.28
2023-03-11T07:07:13.008Z,99230.34
2023-03-11T07:09:40.485Z,99212.16
2023-03-11T07:12:10.366Z,99219.69
2023-03-11T07:14:39.235Z,99209.53
2023-03-11T07:17:06.763Z,99218.84
2023-03-11T07:19:43.988Z,99204.41
2023-03-11T07:22:11.563Z,99203.03
2023-03-11T07:24:39.019Z,99197.00
2023-03-11T07:27:06.674Z,99193.88
2023-03-11T07:29:35.209Z,99189.97
2023-03-11T07:32:02.836Z,99200.16
2023-03-11T07:34:31.542Z,99186.84
2023-03-11T07:36:59.098Z,99193.25
2023-03-11T07:39:26.683Z,99175.69
2023-03-11T07:41:54.145Z,99166.38
2023-03-11T07:44:21.775Z,99163.00
2023-03-11T07:46:49.242Z,99156.09
2023-03-11T07:49:17.086Z,99149.78
2023-03-11T07:51:44.940Z,99135.38
2023-03-11T07:54:13.383Z,99147.56
2023-03-11T07:56:41.560Z,99153.84
2023-03-11T07:59:09.051Z,99133.75
2023-03-11T08:01:41.457Z,99137.38
2023-03-11T08:04:14.176Z,99138.25
2023-03-11T08:06:44.509Z,99123.94
2023-03-11T08:09:12.627Z,99116.16
2023-03-11T08:11:40.160Z,99133.13
2023-03-11T08:14:08.091Z,99119.16
2023-03-11T08:16:35.614Z,99117.75
2023-03-11T08:19:03.408Z,99106.59
2023-03-11T08:21:32.429Z,99093.03
2023-03-11T08:24:02.188Z,99107.69
2023-03-11T08:26:32.001Z,99093.03
2023-03-11T08:28:59.835Z,99080.34
2023-03-11T08:31:29.998Z,99082.56
2023-03-11T08:34:03.545Z,99075.75
2023-03-11T08:36:32.136Z,99083.22
2023-03-11T08:39:01.301Z,99096.09
2023-03-11T08:41:29.015Z,99090.81
2023-03-11T08:43:56.975Z,99078.78
2023-03-11T08:46:29.200Z,99086.75
2023-03-11T08:49:00.873Z,99098.16
2023-03-11T08:51:30.972Z,99089.44
2023-03-11T08:53:59.137Z,99095.59
2023-03-11T08:56:26.956Z,99073.97
2023-03-11T08:58:54.692Z,99073.72
2023-03-11T09:01:23.826Z,99078.34
2023-03-11T09:03:51.894Z,99068.19
2023-03-11T09:06:19.849Z,99066.03
2023-03-11T09:08:48.593Z,99081.34
2023-03-11T09:11:18.574Z,99060.75
2023-03-11T09:13:46.128Z,99058.59
2023-03-11T09:16:23.881Z,99066.03
2023-03-11T09:18:51.612Z,99050.41
2023-03-11T09:21:19.586Z,99058.94
2023-03-11T09:23:50.547Z,99042.97
2023-03-11T09:26:18.149Z,99054.28
2023-03-11T09:28:49.154Z,99047.28
2023-03-11T09:31:18.234Z,99044.84
2023-03-11T09:33:50.179Z,99050.50
2023-03-11T09:36:20.364Z,99034.69
2023-03-11T09:38:48.872Z,99037.13
2023-03-11T09:41:57.463Z,99044.28
2023-03-11T09:44:37.442Z,99040.50
2023-03-11T09:47:42.088Z,99044.75
2023-03-11T09:50:41.724Z,99036.53
2023-03-11T09:53:22.032Z,99021.66
2023-03-11T09:55:59.345Z,99020.50
2023-03-11T09:58:45.832Z,99020.06
2023-03-11T10:01:19.652Z,99014.16
2023-03-11T10:03:48.792Z,98991.41
2023-03-11T10:06:23.822Z,98989.88
2023-03-11T10:09:12.602Z,98989.47
2023-03-11T10:12:16.392Z,98985.44
2023-03-11T10:15:09.489Z,98974.56
2023-03-11T10:17:36.939Z,98980.97
2023-03-11T10:20:15.562Z,98970.44
2023-03-11T10:23:19.587Z,98960.56
2023-03-11T10:25:58.933Z,98952.63
2023-03-11T10:28:53.375Z,98962.47
2023-03-11T10:31:38.268Z,98954.25
2023-03-11T10:34:26.662Z,98944.91
2023-03-11T10:37:03.990Z,98928.28
2023-03-11T10:39:33.503Z,98923.38
2023-03-11T10:42:05.327Z,98911.38
2023-03-11T10:44:38.336Z,98902.22
2023-03-11T10:47:07.424Z,98908.00
2023-03-11T10:49:34.981Z,98909.13
2023-03-11T10:52:04.169Z,98911.63
2023-03-11T10:54:35.884Z,98900.13
2023-03-11T10:57:06.640Z,98883.97
2023-03-11T10:59:46.733Z,98911.72
2023-03-11T11:02:42.687Z,98918.28
2023-03-11T11:05:22.901Z,98889.25
2023-03-11T11:08:06.639Z,98882.97
2023-03-11T11:10:36.516Z,98872.97
2023-03-11T11:13:12.986Z,98861.31
2023-03-11T11:15:51.326Z,98864.81
2023-03-11T11:18:21.400Z,98855.75
2023-03-11T11:21:01.021Z,98861.13
2023-03-11T11:23:34.715Z,98861.88
2023-03-11T11:26:06.733Z,98859.69
2023-03-11T11:28:35.188Z,98851.19
2023-03-11T11:31:06.277Z,98834.91
2023-03-11T11:33:40.473Z,98845.53
2023-03-11T11:36:15.412Z,98816.22
2023-03-11T11:38:43.345Z,98836.44
2023-03-11T11:41:17.106Z,98824.84
2023-03-11T11:43:55.467Z,98820.44
2023-03-11T11:46:46.285Z,98817.72
2023-03-11T11:49:16.904Z,98818.19
2023-03-11T11:51:47.210Z,98804.38
2023-03-11T11:54:15.462Z,98812.16
2023-03-11T11:56:43.614Z,98810.19
2023-03-11T11:59:19.044Z,98826.28
2023-03-11T12:02:05.153Z,98808.53
2023-03-11T12:04:43.691Z,98800.47
2023-03-11T12:07:11.447Z,98798.25
2023-03-11T12:10:01.970Z,98800.34
2023-03-11T12:13:11.124Z,98807.88
2023-03-11T12:15:44.343Z,98796.28
2023-03-11T12:18:20.019Z,98788.00
2023-03-11T12:20:57.515Z,98787.22
2023-03-11T12:23:32.962Z,98798.91
2023-03-11T12:26:20.280Z,98779.13
2023-03-11T12:28:53.503Z,98793.69
2023-03-11T12:31:23.467Z,98775.84
2023-03-11T12:33:59.188Z,98771.69
2023-03-11T12:36:34.114Z,98781.19
2023-03-11T12:39:06.135Z,98778.47
2023-03-11T12:41:40.188Z,98769.97
2023-03-11T12:44:29.029Z,98764.66
2023-03-11T12:46:59.609Z,98778.03
2023-03-11T12:49:36.178Z,98797.94
2023-03-11T12:52:18.203Z,98757.88
2023-03-11T12:54:50.234Z,98783.59
2023-03-11T12:57:18.629Z,98757.88
2023-03-11T13:00:08.240Z,98780.66
2023-03-11T13:02:56.701Z,98773.00
2023-03-11T13:06:02.476Z,98749.13
2023-03-11T13:08:50.495Z,98756.56
2023-03-11T13:11:33.005Z,98756.81
2023-03-11T13:14:18.273Z,98748.06
2023-03-11T13:16:46.987Z,98740.06
2023-03-11T13:19:26.498Z,98733.25
2023-03-11T13:21:55.670Z,98725.31
2023-03-11T13:24:25.920Z,98729.22
2023-03-11T13:26:56.614Z,98719.28
2023-03-11T13:29:54.960Z,98695.28
2023-03-11T13:32:58.630Z,98708.38
2023-03-11T13:35:35.522Z,98696.81
2023-03-11T13:38:44.342Z,98685.09
2023-03-11T13:41:21.263Z,98694.41
2023-03-11T13:43:52.320Z,98680.41
2023-03-11T13:46:32.766Z,98679.53
2023-03-11T13:49:08.393Z,98679.53
2023-03-11T13:51:41.222Z,98660.56
2023-03-11T13:54:30.024Z,98659.59
2023-03-11T13:57:00.921Z,98664.72
2023-03-11T13:59:35.054Z,98659.91
2023-03-11T14:02:08.468Z,98658.56
2023-03-11T14:04:40.138Z,98650.81
2023-03-11T14:07:26.011Z,98667.88
2023-03-11T14:10:12.340Z,98653.34
2023-03-11T14:12:40.061Z,98661.59
2023-03-11T14:15:09.369Z,98654.03
2023-03-11T14:17:36.995Z,98675.63
2023-03-11T14:20:12.159Z,98644.97
2023-03-11T14:22:39.769Z,98634.47
2023-03-11T14:25:16.073Z,98640.03
2023-03-11T14:27:54.354Z,98647.00
2023-03-11T14:30:27.629Z,98631.69
2023-03-11T14:33:04.452Z,98626.09
2023-03-11T14:35:34.069Z,98612.94
2023-03-11T14:38:01.802Z,98620.94
2023-03-11T14:40:37.851Z,98615.03
2023-03-11T14:43:08.260Z,98611.25
2023-03-11T14:45:38.286Z,98614.66
2023-03-11T14:48:15.048Z,98625.97
2023-03-11T14:50:45.123Z,98607.97
2023-03-11T14:53:14.911Z,98608.56
2023-03-11T14:55:51.133Z,98605.97
2023-03-11T14:58:34.754Z,98593.97
2023-03-11T15:01:05.919Z,98600.16
2023-03-11T15:03:38.194Z,98583.09
2023-03-11T15:06:18.578Z,98593.16
2023-03-11T15:08:49.797Z,98597.03
2023-03-11T15:11:17.422Z,98591.09
2023-03-11T15:13:50.915Z,98604.59
2023-03-11T15:16:33.696Z,98587.63
2023-03-11T15:19:21.128Z,98597.13
2023-03-11T15:21:50.871Z,98585.09
2023-03-11T15:24:21.258Z,98583.56
2023-03-11T15:26:58.311Z,98570.91
2023-03-11T15:29:27.911Z,98576.72
2023-03-11T15:31:57.344Z,98583.13
2023-03-11T15:34:26.768Z,98573.13
2023-03-11T15:36:58.034Z,98561.50
2023-03-11T15:39:47.732Z,98555.59
2023-03-11T15:42:20.233Z,98572.66
2023-03-11T15:45:09.381Z,98551.47
2023-03-11T15:47:37.041Z,98539.34
2023-03-11T15:50:24.824Z,98549.03
2023-03-11T15:52:56.434Z,98538.69
2023-03-11T15:55:26.500Z,98546.91
2023-03-11T15:58:08.053Z,98542.53
2023-03-11T16:00:36.974Z,98528.41
2023-03-11T16:03:06.219Z,98532.28
2023-03-11T16:05:33.887Z,98527.53
2023-03-11T16:08:01.904Z,98534.91
2023-03-11T16:10:29.581Z,98530.53
2023-03-11T16:12:57.240Z,98513.41
2023-03-11T16:15:29.689Z,98515.41
2023-03-11T16:18:02.440Z,98507.94
2023-03-11T16:20:36.465Z,98504.47
2023-03-11T16:23:04.320Z,98526.75
2023-03-11T16:25:36.376Z,98483.75
2023-03-11T16:28:04.782Z,98485.97
2023-03-11T16:30:34.568Z,98485.47
2023-03-11T16:33:05.301Z,98483.72
2023-03-11T16:35:33.964Z,98486.94
2023-03-11T16:38:02.302Z,98470.94
2023-03-11T16:40:30.085Z,98469.28
2023-03-11T16:43:05.801Z,98460.00
2023-03-11T16:45:33.676Z,98458.53
2023-03-11T16:48:01.308Z,98455.50
2023-03-11T16:50:28.977Z,98446.50
2023-03-11T16:52:57.507Z,98438.34
2023-03-11T16:55:26.706Z,98435.44
2023-03-11T16:57:56.364Z,98440.88
2023-03-11T17:00:27.937Z,98430.00
2023-03-11T17:02:55.431Z,98418.56
2023-03-11T17:05:23.266Z,98422.25
2023-03-11T17:08:01.142Z,98417.75
2023-03-11T17:10:29.080Z,98398.34
2023-03-11T17:12:56.898Z,98390.00
2023-03-11T17:15:24.483Z,98396.78
2023-03-11T17:17:52.006Z,98399.41
2023-03-11T17:20:21.638Z,98407.81
2023-03-11T17:22:49.665Z,98378.06
2023-03-11T17:25:17.563Z,98385.63
2023-03-11T17:27:45.629Z,98384.19
2023-03-11T17:30:19.432Z,98379.31
2023-03-11T17:32:54.126Z,98365.06
2023-03-11T17:35:22.058Z,98382.44
2023-03-11T17:37:49.728Z,98358.28
2023-03-11T17:40:17.635Z,98357.69
2023-03-11T17:42:45.483Z,98356.03
2023-03-11T17:45:13.461Z,98341.88
2023-03-11T17:47:41.411Z,98341.94
2023-03-11T17:50:09.829Z,98327.44
2023-03-11T17:52:37.518Z,98338.84
2023-03-11T17:55:05.461Z,98314.66
2023-03-11T17:57:44.436Z,98323.94
2023-03-11T18:00:14.988Z,98309.88
2023-03-11T18:02:43.433Z,98296.56
2023-03-11T18:05:10.947Z,98304.66
2023-03-11T18:07:42.922Z,98302.66
2023-03-11T18:10:12.633Z,98295.09
2023-03-11T18:12:45.010Z,98291.59
2023-03-11T18:15:18.932Z,98290.31
2023-03-11T18:17:47.684Z,98305.00
2023-03-11T18:20:17.039Z,98286.31
2023-03-11T18:22:46.718Z,98275.06
2023-03-11T18:25:14.782Z,98270.81
2023-03-11T18:27:42.454Z,98280.75
2023-03-11T18:30:11.362Z,98282.84
2023-03-11T18:32:38.973Z,98277.59
2023-03-11T18:35:06.993Z,98269.44
2023-03-11T18:37:34.678Z,98277.94
2023-03-11T18:40:03.683Z,98264.63
2023-03-11T18:42:32.329Z,98241.84
2023-03-11T18:44:59.858Z,98256.09
2023-03-11T18:47:35.608Z,98253.06
2023-03-11T18:50:04.216Z,98244.84
2023-03-11T18:52:34.274Z,98237.22
2023-03-11T18:55:01.908Z,98230.84
2023-03-11T18:57:30.942Z,98212.31
2023-03-11T18:59:58.573Z,98214.97
2023-03-11T19:02:26.269Z,98227.06
2023-03-11T19:04:54.064Z,98198.25
2023-03-11T19:07:22.757Z,98196.78
2023-03-11T19:09:50.413Z,98199.84
2023-03-11T19:12:18.191Z,98193.84
2023-03-11T19:14:45.802Z,98173.75
2023-03-11T19:17:16.475Z,98189.81
2023-03-11T19:19:44.245Z,98192.34
2023-03-11T19:22:11.722Z,98170.75
2023-03-11T19:24:39.513Z,98180.31
2023-03-11T19:27:07.022Z,98157.66
2023-03-11T19:29:34.679Z,98155.94
2023-03-11T19:32:03.580Z,98156.09
2023-03-11T19:34:31.614Z,98149.78
2023-03-11T19:36:59.365Z,98140.66
2023-03-11T19:39:26.826Z,98131.41
2023-03-11T19:41:55.578Z,98134.00
2023-03-11T19:44:23.796Z,98109.88
2023-03-11T19:46:51.541Z,98117.81
2023-03-11T19:49:19.127Z,98089.03
2023-03-11T19:51:50.457Z,98085.50
2023-03-11T19:54:19.033Z,98091.09
2023-03-11T19:56:46.807Z,98085.25
2023-03-11T19:59:14.670Z,98085.25
2023-03-11T20:01:42.991Z,98087.63
2023-03-11T20:04:11.275Z,98077.69
2023-03-11T20:06:39.152Z,98080.53
2023-03-11T20:09:07.292Z,98073.25
2023-03-11T20:11:38.834Z,98052.94
2023-03-11T20:14:07.105Z,98068.41
2023-03-11T20:16:34.826Z,98054.84
2023-03-11T20:19:02.510Z,98044.69
2023-03-11T20:21:30.232Z,98027.50
2023-03-11T20:23:58.360Z,98052.69
2023-03-11T20:26:27.128Z,98026.91
2023-03-11T20:28:57.909Z,98022.03
2023-03-11T20:31:28.547Z,98024.84
2023-03-11T20:33:58.426Z,98006.16
2023-03-11T20:36:29.625Z,98007.97
2023-03-11T20:38:57.685Z,97997.06
2023-03-11T20:41:26.552Z,97988.91
2023-03-11T20:43:56.227Z,97996.22
2023-03-11T20:46:24.273Z,97976.06
2023-03-11T20:48:51.972Z,97974.63
2023-03-11T20:51:20.961Z,97964.59
2023-03-11T20:53:49.136Z,97966.16
2023-03-11T20:56:20.220Z,97966.28
2023-03-11T20:58:51.220Z,97956.38
2023-03-11T21:01:23.411Z,97948.09
2023-03-11T21:03:54.291Z,97941.50
2023-03-11T21:06:28.293Z,97934.44
2023-03-11T21:08:58.058Z,97917.47
2023-03-11T21:11:26.322Z,97918.63
2023-03-11T21:13:54.784Z,97907.22
2023-03-11T21:16:22.700Z,97891.38
2023-03-11T21:18:50.541Z,97889.09
2023-03-11T21:21:19.276Z,97891.03
2023-03-11T21:23:48.025Z,97877.16
2023-03-11T21:26:17.529Z,97885.81
2023-03-11T21:28:47.067Z,97870.88
2023-03-11T21:31:18.161Z,97850.03
2023-03-11T21:33:48.531Z,97851.94
2023-03-11T21:36:16.716Z,97857.63
2023-03-11T21:38:44.565Z,97842.41
2023-03-11T21:41:15.583Z,97841.88
2023-03-11T21:43:44.222Z,97831.19
2023-03-11T21:46:15.860Z,97824.47
2023-03-11T21:48:44.305Z,97810.38
2023-03-11T21:51:15.581Z,97817.22
2023-03-11T21:53:43.487Z,97813.00
2023-03-11T21:56:11.239Z,97793.66
2023-03-11T21:58:39.507Z,97792.78
2023-03-11T22:01:11.164Z,97792.31
2023-03-11T22:03:39.301Z,97790.03
2023-03-11T22:06:10.231Z,97781.72
2023-03-11T22:08:42.462Z,97766.53
2023-03-11T22:11:19.063Z,97774.38
2023-03-11T22:13:47.491Z,97759.03
2023-03-11T22:16:17.980Z,97761.00
2023-03-11T22:18:46.698Z,97763.47
2023-03-11T22:21:16.458Z,97754.97
2023-03-11T22:23:45.120Z,97761.13
2023-03-11T22:26:12.935Z,97758.78
2023-03-11T22:28:40.742Z,97748.91
2023-03-11T22:31:11.045Z,97723.50
2023-03-11T22:33:39.000Z,97716.84
2023-03-11T22:36:07.862Z,97738.38
2023-03-11T22:38:37.087Z,97726.69
2023-03-11T22:41:08.352Z,97729.53
2023-03-11T22:43:36.854Z,97722.59
2023-03-11T22:46:06.512Z,97722.13
2023-03-11T22:48:34.955Z,97707.81
2023-03-11T22:51:02.660Z,97700.31
2023-03-11T22:53:30.458Z,97692.78
2023-03-11T22:55:58.076Z,97694.44
2023-03-11T22:58:25.701Z,97702.94
2023-03-11T23:00:53.123Z,97678.41
2023-03-11T23:03:20.633Z,97678.59
2023-03-11T23:05:48.224Z,97666.84
2023-03-11T23:08:16.607Z,97671.03
2023-03-11T23:10:46.653Z,97663.50
2023-03-11T23:13:14.220Z,97644.25
2023-03-11T23:15:44.263Z,97640.78
2023-03-11T23:18:13.026Z,97641.78
2023-03-11T23:20:42.286Z,97625.88
2023-03-11T23:23:10.727Z,97627.50
2023-03-11T23:25:39.958Z,97620.88
2023-03-11T23:28:07.763Z,97609.94
2023-03-11T23:30:35.602Z,97603.25
2023-03-11T23:33:03.464Z,97605.97
2023-03-11T23:35:31.793Z,97589.03
2023-03-11T23:38:00.557Z,97595.94
2023-03-11T23:40:28.266Z,97581.44
2023-03-11T23:42:55.892Z,97573.22
2023-03-11T23:45:23.380Z,97569.19
2023-03-11T23:47:50.890Z,97568.38
2023-03-11T23:50:18.578Z,97554.13
2023-03-11T23:52:46.153Z,97550.84
2023-03-11T23:55:13.717Z,97552.66
2023-03-11T23:57:48.663Z,97542.66
